createdAt,value
2023-08-08T00:01:44.279Z,92.70
2023-08-08T00:04:18.881Z,93.47
2023-08-08T00:06:45.763Z,93.45
2023-08-08T00:09:18.919Z,93.41
2023-08-08T00:11:52.823Z,94.28
2023-08-08T00:14:25.808Z,94.39
2023-08-08T00:16:58.858Z,94.53
2023-08-08T00:19:25.911Z,95.20
2023-08-08T00:21:59.121Z,95.30
2023-08-08T00:24:26.293Z,95.45
2023-08-08T00:26:59.891Z,96.07
2023-08-08T00:29:26.795Z,96.15
2023-08-08T00:32:06.955Z,96.36
2023-08-08T00:34:34.097Z,97.11
2023-08-08T00:37:07.916Z,96.69
2023-08-08T00:39:34.812Z,97.05
2023-08-08T00:42:08.955Z,96.73
2023-08-08T00:44:35.892Z,96.58
2023-08-08T00:47:08.918Z,96.85
2023-08-08T00:49:36.338Z,97.08
2023-08-08T00:52:09.910Z,96.68
2023-08-08T00:54:42.987Z,96.22
2023-08-08T00:57:09.862Z,95.71
2023-08-08T00:59:43.920Z,95.89
2023-08-08T01:02:10.945Z,96.00
2023-08-08T01:04:44.943Z,96.44
2023-08-08T01:07:18.785Z,96.57
2023-08-08T01:10:17.062Z,95.93
2023-08-08T01:12:48.264Z,96.56
2023-08-08T01:15:22.913Z,96.74
2023-08-08T01:17:50.049Z,96.15
2023-08-08T01:20:24.903Z,96.06
2023-08-08T01:23:36.923Z,95.55
2023-08-08T01:26:10.923Z,96.15
2023-08-08T01:28:37.845Z,96.48
2023-08-08T01:31:11.000Z,97.15
2023-08-08T01:33:45.036Z,96.88
2023-08-08T01:36:36.888Z,96.21
2023-08-08T01:39:13.844Z,97.06
2023-08-08T01:41:48.980Z,97.49
2023-08-08T01:44:23.951Z,97.51
2023-08-08T01:46:51.297Z,96.85
2023-08-08T01:49:24.973Z,97.41
2023-08-08T01:51:53.610Z,97.44
2023-08-08T01:54:27.917Z,97.67
2023-08-08T01:56:54.868Z,97.92
2023-08-08T01:59:27.929Z,98.21
2023-08-08T02:01:54.986Z,98.03
2023-08-08T02:04:28.964Z,98.62
2023-08-08T02:06:55.828Z,98.24
2023-08-08T02:09:28.916Z,98.59
2023-08-08T02:11:56.414Z,98.95
2023-08-08T02:14:29.949Z,99.23
2023-08-08T02:17:02.974Z,99.19
2023-08-08T02:19:36.921Z,99.24
2023-08-08T02:22:03.916Z,99.13
2023-08-08T02:24:36.926Z,99.66
2023-08-08T02:27:10.971Z,99.92
2023-08-08T02:29:37.806Z,100.00
2023-08-08T02:32:11.921Z,100.00
2023-08-08T02:34:45.728Z,100.00
2023-08-08T02:37:18.903Z,100.00
2023-08-08T02:39:46.078Z,100.00
2023-08-08T02:42:19.931Z,100.00
2023-08-08T02:44:46.782Z,100.00
2023-08-08T02:47:20.000Z,100.00
2023-08-08T02:49:46.884Z,100.00
2023-08-08T02:52:19.940Z,100.00
2023-08-08T02:54:46.811Z,100.00
2023-08-08T02:57:13.647Z,100.00
2023-08-08T02:59:46.922Z,100.00
2023-08-08T03:02:19.971Z,100.00
2023-08-08T03:04:47.051Z,100.00
2023-08-08T03:07:19.975Z,100.00
2023-08-08T03:09:52.926Z,100.00
2023-08-08T03:12:25.928Z,100.00
2023-08-08T03:14:58.930Z,100.00
2023-08-08T03:17:26.153Z,100.00
2023-08-08T03:20:00.123Z,100.00
2023-08-08T03:22:27.231Z,100.00
2023-08-08T03:25:00.936Z,100.00
2023-08-08T03:27:27.800Z,100.00
2023-08-08T03:30:01.062Z,100.00
2023-08-08T03:32:35.934Z,100.00
2023-08-08T03:35:10.012Z,100.00
2023-08-08T03:37:37.256Z,100.00
2023-08-08T03:40:11.090Z,100.00
2023-08-08T03:42:38.054Z,100.00
2023-08-08T03:45:12.051Z,100.00
2023-08-08T03:47:38.975Z,100.00
2023-08-08T03:50:14.014Z,100.00
2023-08-08T03:52:47.994Z,100.00
2023-08-08T03:55:14.934Z,100.00
2023-08-08T03:57:48.009Z,100.00
2023-08-08T04:00:15.067Z,100.00
2023-08-08T04:02:48.059Z,100.00
2023-08-08T04:05:14.973Z,100.00
2023-08-08T04:07:49.036Z,100.00
2023-08-08T04:10:16.016Z,100.00
2023-08-08T04:12:49.995Z,100.00
2023-08-08T04:15:16.912Z,100.00
2023-08-08T04:17:50.068Z,100.00
2023-08-08T04:20:17.189Z,100.00
2023-08-08T04:22:50.014Z,100.00
2023-08-08T04:25:17.069Z,100.00
2023-08-08T04:27:51.124Z,100.00
2023-08-08T04:30:17.944Z,100.00
2023-08-08T04:32:58.007Z,100.00
2023-08-08T04:35:38.118Z,100.00
2023-08-08T04:38:05.405Z,100.00
2023-08-08T04:40:39.535Z,100.00
2023-08-08T04:43:13.052Z,100.00
2023-08-08T04:45:46.061Z,100.00
2023-08-08T04:48:18.982Z,100.00
2023-08-08T04:50:55.052Z,100.00
2023-08-08T04:53:29.034Z,100.00
2023-08-08T04:55:55.899Z,100.00
2023-08-08T04:58:29.012Z,100.00
2023-08-08T05:01:03.009Z,100.00
2023-08-08T05:03:30.033Z,100.00
2023-08-08T05:06:03.008Z,100.00
2023-08-08T05:08:36.034Z,100.00
2023-08-08T05:11:02.861Z,100.00
2023-08-08T05:13:36.011Z,100.00
2023-08-08T05:16:09.040Z,100.00
2023-08-08T05:18:42.148Z,100.00
2023-08-08T05:21:14.985Z,100.00
2023-08-08T05:23:41.918Z,100.00
2023-08-08T05:26:15.029Z,100.00
2023-08-08T05:28:41.953Z,100.00
2023-08-08T05:31:15.144Z,100.00
2023-08-08T05:33:48.172Z,100.00
2023-08-08T05:36:21.031Z,100.00
2023-08-08T05:38:48.247Z,100.00
2023-08-08T05:41:22.162Z,100.00
2023-08-08T05:43:56.105Z,100.00
2023-08-08T05:46:23.212Z,100.00
2023-08-08T05:48:57.072Z,100.00
2023-08-08T05:51:30.442Z,100.00
2023-08-08T05:53:58.922Z,100.00
2023-08-08T05:56:42.043Z,100.00
2023-08-08T05:59:15.050Z,100.00
2023-08-08T06:01:42.189Z,100.00
2023-08-08T06:04:16.059Z,100.00
2023-08-08T06:06:43.016Z,100.00
2023-08-08T06:09:20.054Z,100.00
2023-08-08T06:11:46.857Z,100.00
2023-08-08T06:14:14.083Z,100.00
2023-08-08T06:16:48.075Z,100.00
2023-08-08T06:19:23.099Z,100.00
2023-08-08T06:21:50.416Z,100.00
2023-08-08T06:24:17.258Z,100.00
2023-08-08T06:26:51.144Z,100.00
2023-08-08T06:29:18.332Z,100.00
2023-08-08T06:31:52.191Z,100.00
2023-08-08T06:34:25.396Z,100.00
2023-08-08T06:36:59.004Z,100.00
2023-08-08T06:39:26.324Z,100.00
2023-08-08T06:42:00.165Z,100.00
2023-08-08T06:44:27.276Z,99.53
2023-08-08T06:47:07.063Z,99.20
2023-08-08T06:49:34.024Z,99.13
2023-08-08T06:52:07.208Z,97.74
2023-08-08T06:54:34.734Z,97.70
2023-08-08T06:57:10.034Z,97.27
2023-08-08T06:59:36.930Z,96.51
2023-08-08T07:02:10.393Z,94.28
2023-08-08T07:04:37.468Z,93.70
2023-08-08T07:07:11.098Z,92.47
2023-08-08T07:09:45.108Z,91.42
2023-08-08T07:12:12.329Z,91.30
2023-08-08T07:14:46.142Z,89.05
2023-08-08T07:17:12.983Z,89.91
2023-08-08T07:19:47.203Z,88.21
2023-08-08T07:22:14.089Z,87.62
2023-08-08T07:24:47.181Z,87.08
2023-08-08T07:27:13.985Z,87.44
2023-08-08T07:29:47.126Z,86.27
2023-08-08T07:32:34.128Z,86.81
2023-08-08T07:35:10.082Z,85.91
2023-08-08T07:37:44.085Z,84.44
2023-08-08T07:40:19.194Z,83.02
2023-08-08T07:42:59.143Z,84.18
2023-08-08T07:45:36.466Z,82.05
2023-08-08T07:48:03.608Z,83.11
2023-08-08T07:50:37.162Z,81.22
2023-08-08T07:53:10.126Z,80.74
2023-08-08T07:55:36.864Z,81.50
2023-08-08T07:58:10.098Z,79.79
2023-08-08T08:00:36.970Z,80.39
2023-08-08T08:03:11.100Z,78.94
2023-08-08T08:05:38.873Z,80.19
2023-08-08T08:08:12.059Z,78.96
2023-08-08T08:10:38.843Z,78.66
2023-08-08T08:13:12.159Z,78.46
2023-08-08T08:15:39.668Z,76.49
2023-08-08T08:18:13.145Z,76.17
2023-08-08T08:20:47.113Z,75.65
2023-08-08T08:23:14.458Z,74.50
2023-08-08T08:25:48.116Z,72.73
2023-08-08T08:28:21.185Z,73.65
2023-08-08T08:30:55.177Z,74.20
2023-08-08T08:33:28.240Z,71.97
2023-08-08T08:36:01.196Z,73.90
2023-08-08T08:38:28.078Z,73.49
2023-08-08T08:41:11.146Z,72.31
2023-08-08T08:43:52.142Z,70.42
2023-08-08T08:46:29.151Z,69.67
2023-08-08T08:48:59.360Z,69.81
2023-08-08T08:51:33.180Z,69.63
2023-08-08T08:54:00.394Z,68.05
2023-08-08T08:56:35.125Z,67.46
2023-08-08T08:59:01.972Z,68.00
2023-08-08T09:01:36.196Z,67.58
2023-08-08T09:04:04.582Z,67.12
2023-08-08T09:06:32.334Z,67.88
2023-08-08T09:09:16.522Z,64.73
2023-08-08T09:11:46.709Z,65.97
2023-08-08T09:14:29.271Z,65.66
2023-08-08T09:16:57.304Z,64.42
2023-08-08T09:19:31.087Z,66.10
2023-08-08T09:21:58.211Z,63.79
2023-08-08T09:24:32.294Z,62.89
2023-08-08T09:26:59.131Z,62.23
2023-08-08T09:29:32.275Z,61.66
2023-08-08T09:32:06.189Z,62.02
2023-08-08T09:34:40.170Z,60.58
2023-08-08T09:37:07.866Z,62.66
2023-08-08T09:39:41.176Z,61.48
2023-08-08T09:42:16.208Z,61.28
2023-08-08T09:44:44.188Z,62.64
2023-08-08T09:47:23.071Z,61.83
2023-08-08T09:49:57.154Z,62.40
2023-08-08T09:52:30.204Z,62.86
2023-08-08T09:54:57.428Z,64.43
2023-08-08T09:57:24.960Z,63.64
2023-08-08T10:00:00.279Z,63.95
2023-08-08T10:02:34.270Z,64.09
2023-08-08T10:05:09.172Z,67.13
2023-08-08T10:07:43.141Z,70.94
2023-08-08T10:10:11.266Z,74.02
2023-08-08T10:12:49.234Z,79.84
2023-08-08T10:15:16.377Z,84.24
2023-08-08T10:17:44.168Z,84.51
2023-08-08T10:20:25.230Z,86.54
2023-08-08T10:22:57.907Z,87.22
2023-08-08T10:25:35.229Z,86.14
2023-08-08T10:28:25.433Z,84.97
2023-08-08T10:31:05.220Z,83.21
2023-08-08T10:33:50.556Z,82.95
2023-08-08T10:36:24.195Z,82.66
2023-08-08T10:39:03.208Z,81.49
2023-08-08T10:42:11.508Z,79.11
2023-08-08T10:47:48.300Z,76.63
2023-08-08T10:50:27.076Z,78.41
2023-08-08T10:55:54.246Z,74.39
2023-08-08T10:58:36.668Z,72.52
2023-08-08T11:01:14.562Z,69.55
2023-08-08T11:03:51.877Z,70.90
2023-08-08T11:06:29.976Z,71.18
2023-08-08T11:09:11.131Z,70.30
2023-08-08T11:11:49.236Z,70.20
2023-08-08T11:14:25.285Z,68.94
2023-08-08T11:17:06.798Z,74.89
2023-08-08T11:19:45.169Z,80.93
2023-08-08T11:22:19.564Z,84.03
2023-08-08T11:24:46.696Z,86.87
2023-08-08T11:29:53.808Z,88.85
2023-08-08T11:32:28.654Z,88.71
2023-08-08T11:35:08.316Z,87.97
2023-08-08T11:37:35.864Z,89.41
2023-08-08T11:40:11.943Z,89.21
2023-08-08T11:42:46.578Z,87.57
2023-08-08T11:45:22.352Z,88.57
2023-08-08T11:47:58.995Z,89.21
2023-08-08T11:50:37.330Z,90.57
2023-08-08T11:53:08.750Z,88.00
2023-08-08T11:55:45.664Z,86.76
2023-08-08T11:58:16.229Z,82.02
2023-08-08T12:00:58.943Z,82.86
2023-08-08T12:03:34.167Z,83.56
2023-08-08T12:06:23.334Z,80.54
2023-08-08T12:08:52.853Z,75.52
2023-08-08T12:11:33.418Z,69.50
2023-08-08T12:14:05.918Z,69.21
2023-08-08T12:16:51.554Z,69.39
2023-08-08T12:19:22.842Z,67.69
2023-08-08T12:22:02.497Z,65.28
2023-08-08T12:24:29.639Z,65.29
2023-08-08T12:27:03.371Z,65.36
2023-08-08T12:29:40.310Z,66.88
2023-08-08T12:32:16.300Z,65.60
2023-08-08T12:34:43.412Z,65.34
2023-08-08T12:37:18.323Z,66.46
2023-08-08T12:39:54.547Z,63.89
2023-08-08T12:42:38.360Z,62.87
2023-08-08T12:45:15.430Z,62.31
2023-08-08T12:47:55.825Z,60.85
2023-08-08T12:50:29.396Z,56.87
2023-08-08T12:53:03.316Z,55.07
2023-08-08T12:55:37.439Z,56.05
2023-08-08T12:58:19.432Z,56.14
2023-08-08T13:00:54.590Z,54.84
2023-08-08T13:03:26.614Z,53.95
2023-08-08T13:06:09.492Z,54.57
2023-08-08T13:08:39.462Z,52.83
2023-08-08T13:11:16.410Z,53.49
2023-08-08T13:13:46.251Z,54.44
2023-08-08T13:16:19.426Z,55.62
2023-08-08T13:18:52.007Z,55.28
2023-08-08T13:24:14.404Z,55.44
2023-08-08T13:26:51.476Z,54.07
2023-08-08T13:29:18.627Z,54.26
2023-08-08T13:31:54.870Z,55.06
2023-08-08T13:34:22.235Z,57.04
2023-08-08T13:36:52.512Z,56.66
2023-08-08T13:39:26.354Z,57.15
2023-08-08T13:42:13.366Z,55.58
2023-08-08T13:44:40.694Z,54.68
2023-08-08T13:47:14.295Z,54.53
2023-08-08T13:52:36.518Z,52.11
2023-08-08T13:55:04.298Z,52.60
2023-08-08T13:57:31.756Z,55.20
2023-08-08T14:00:08.356Z,55.30
2023-08-08T14:02:37.802Z,56.45
2023-08-08T14:05:14.521Z,54.71
2023-08-08T14:07:41.760Z,54.71
2023-08-08T14:10:20.483Z,53.29
2023-08-08T14:12:47.830Z,53.22
2023-08-08T14:15:25.578Z,52.07
2023-08-08T14:17:59.086Z,52.75
2023-08-08T14:20:42.578Z,54.09
2023-08-08T14:23:09.738Z,54.95
2023-08-08T14:25:45.589Z,55.53
2023-08-08T14:28:14.789Z,54.59
2023-08-08T14:30:54.639Z,54.09
2023-08-08T14:33:28.426Z,51.08
2023-08-08T14:35:55.573Z,51.89
2023-08-08T14:38:33.490Z,52.62
2023-08-08T14:41:23.512Z,53.70
2023-08-08T14:43:58.606Z,54.78
2023-08-08T14:46:32.341Z,56.17
2023-08-08T14:49:09.622Z,55.94
2023-08-08T14:51:39.709Z,58.43
2023-08-08T14:54:14.455Z,60.31
2023-08-08T14:56:41.829Z,60.46
2023-08-08T14:59:15.445Z,60.85
2023-08-08T15:01:42.982Z,57.53
2023-08-08T15:04:19.627Z,55.32
2023-08-08T15:06:55.194Z,55.10
2023-08-08T15:09:28.540Z,54.88
2023-08-08T15:11:55.993Z,56.61
2023-08-08T15:14:34.495Z,55.88
2023-08-08T15:17:03.799Z,55.15
2023-08-08T15:19:39.510Z,57.37
2023-08-08T15:22:07.990Z,57.11
2023-08-08T15:24:43.432Z,57.72
2023-08-08T15:27:16.211Z,59.13
2023-08-08T15:30:14.734Z,59.52
2023-08-08T15:32:42.167Z,59.42
2023-08-08T15:35:16.572Z,60.32
2023-08-08T15:37:53.323Z,61.10
2023-08-08T15:40:34.159Z,59.69
2023-08-08T15:43:17.808Z,58.83
2023-08-08T15:45:51.616Z,59.10
2023-08-08T15:48:31.642Z,60.13
2023-08-08T15:51:10.686Z,59.96
2023-08-08T15:53:38.249Z,60.12
2023-08-08T15:56:12.389Z,59.86
2023-08-08T15:58:40.729Z,60.71
2023-08-08T16:01:10.833Z,61.19
2023-08-08T16:03:44.535Z,61.52
2023-08-08T16:06:11.736Z,61.67
2023-08-08T16:08:50.420Z,62.29
2023-08-08T16:11:19.662Z,62.23
2023-08-08T16:13:54.551Z,62.06
2023-08-08T16:16:21.739Z,62.03
2023-08-08T16:19:03.421Z,62.57
2023-08-08T16:21:30.888Z,62.32
2023-08-08T16:24:06.222Z,63.43
2023-08-08T16:26:42.481Z,64.00
2023-08-08T16:29:18.428Z,63.63
2023-08-08T16:31:53.662Z,66.27
2023-08-08T16:34:30.081Z,70.22
2023-08-08T16:37:05.984Z,69.97
2023-08-08T16:39:39.194Z,70.70
2023-08-08T16:42:16.574Z,71.33
2023-08-08T16:44:43.785Z,70.51
2023-08-08T16:47:17.440Z,70.74
2023-08-08T16:49:51.855Z,70.51
2023-08-08T16:52:29.391Z,71.21
2023-08-08T16:54:56.915Z,71.90
2023-08-08T16:57:36.456Z,72.16
2023-08-08T17:00:05.630Z,72.10
2023-08-08T17:02:43.069Z,72.53
2023-08-08T17:05:11.368Z,72.86
2023-08-08T17:07:46.744Z,73.05
2023-08-08T17:10:16.691Z,73.15
2023-08-08T17:12:50.578Z,73.03
2023-08-08T17:15:25.006Z,73.73
2023-08-08T17:18:08.603Z,74.64
2023-08-08T17:20:41.070Z,75.50
2023-08-08T17:23:17.589Z,75.02
2023-08-08T17:25:51.648Z,76.12
2023-08-08T17:28:28.542Z,76.02
2023-08-08T17:31:03.132Z,76.27
2023-08-08T17:33:33.696Z,75.78
2023-08-08T17:36:07.615Z,76.40
2023-08-08T17:38:34.799Z,76.30
2023-08-08T17:41:11.466Z,76.19
2023-08-08T17:43:47.768Z,76.66
2023-08-08T17:46:25.553Z,77.12
2023-08-08T17:48:59.637Z,76.99
2023-08-08T17:51:36.444Z,77.61
2023-08-08T17:54:04.020Z,79.17
2023-08-08T17:56:38.673Z,80.06
2023-08-08T17:59:08.151Z,80.67
2023-08-08T18:01:41.947Z,81.87
2023-08-08T18:04:16.007Z,83.55
2023-08-08T18:06:52.574Z,84.34
2023-08-08T18:09:26.584Z,85.57
2023-08-08T18:11:57.094Z,86.48
2023-08-08T18:14:31.587Z,88.52
2023-08-08T18:17:08.688Z,88.78
2023-08-08T18:19:45.543Z,89.79
2023-08-08T18:22:19.637Z,90.39
2023-08-08T18:24:53.922Z,90.21
2023-08-08T18:27:24.764Z,90.96
2023-08-08T18:29:58.647Z,91.17
2023-08-08T18:32:29.165Z,91.70
2023-08-08T18:35:03.665Z,92.03
2023-08-08T18:37:31.322Z,91.96
2023-08-08T18:40:06.650Z,92.30
2023-08-08T18:42:40.807Z,92.13
2023-08-08T18:45:16.208Z,92.02
2023-08-08T18:47:46.579Z,92.54
2023-08-08T18:50:28.722Z,92.87
2023-08-08T18:53:05.921Z,93.28
2023-08-08T18:55:40.635Z,91.93
2023-08-08T18:58:11.315Z,92.46
2023-08-08T19:00:50.184Z,92.94
2023-08-08T19:03:20.004Z,92.81
2023-08-08T19:06:00.637Z,93.14
2023-08-08T19:08:28.250Z,92.83
2023-08-08T19:11:04.592Z,93.35
2023-08-08T19:13:41.504Z,93.68
2023-08-08T19:16:09.443Z,93.13
2023-08-08T19:18:45.564Z,93.58
2023-08-08T19:21:12.973Z,94.19
2023-08-08T19:23:55.545Z,93.79
2023-08-08T19:26:23.017Z,93.53
2023-08-08T19:28:59.620Z,94.32
2023-08-08T19:31:26.878Z,92.78
2023-08-08T19:34:19.712Z,93.41
2023-08-08T19:36:53.816Z,93.90
2023-08-08T19:42:15.678Z,94.44
2023-08-08T19:44:49.582Z,93.98
2023-08-08T19:47:20.218Z,94.05
2023-08-08T19:49:54.838Z,94.11
2023-08-08T19:52:31.749Z,94.53
2023-08-08T19:54:59.073Z,94.22
2023-08-08T19:57:35.666Z,94.09
2023-08-08T20:00:07.641Z,93.98
2023-08-08T20:02:46.157Z,94.58
2023-08-08T20:05:28.867Z,93.83
2023-08-08T20:07:56.589Z,95.56
2023-08-08T20:10:33.700Z,94.63
2023-08-08T20:13:02.738Z,94.05
2023-08-08T20:15:38.790Z,95.33
2023-08-08T20:18:15.643Z,95.05
2023-08-08T20:20:43.161Z,95.69
2023-08-08T20:23:17.628Z,96.58
2023-08-08T20:25:45.469Z,96.58
2023-08-08T20:28:24.694Z,97.37
2023-08-08T20:30:55.323Z,96.26
2023-08-08T20:33:32.645Z,95.29
2023-08-08T20:36:02.322Z,94.26
2023-08-08T20:38:38.618Z,94.52
2023-08-08T20:41:09.358Z,94.53
2023-08-08T20:43:55.217Z,95.30
2023-08-08T20:46:25.822Z,94.55
2023-08-08T20:49:01.720Z,94.97
2023-08-08T20:51:38.081Z,95.51
2023-08-08T20:54:14.761Z,94.90
2023-08-08T20:59:32.784Z,96.36
2023-08-08T21:02:06.717Z,97.23
2023-08-08T21:04:43.637Z,97.52
2023-08-08T21:07:16.067Z,97.23
2023-08-08T21:09:51.574Z,97.15
2023-08-08T21:12:25.644Z,97.39
2023-08-08T21:15:01.268Z,98.81
2023-08-08T21:17:31.254Z,98.79
2023-08-08T21:20:05.650Z,99.78
2023-08-08T21:22:44.606Z,99.82
2023-08-08T21:25:17.657Z,100.00
2023-08-08T21:28:00.287Z,100.00
2023-08-08T21:30:28.059Z,100.00
2023-08-08T21:33:04.807Z,100.00
2023-08-08T21:35:33.375Z,100.00
2023-08-08T21:38:07.706Z,100.00
2023-08-08T21:40:36.754Z,100.00
2023-08-08T21:43:23.619Z,100.00
2023-08-08T21:45:51.531Z,100.00
2023-08-08T21:48:25.767Z,100.00
2023-08-08T21:50:58.407Z,100.00
2023-08-08T21:53:32.858Z,100.00
2023-08-08T21:56:10.740Z,100.00
2023-08-08T21:58:45.650Z,100.00
2023-08-08T22:01:14.872Z,100.00
2023-08-08T22:03:51.802Z,100.00
2023-08-08T22:09:07.653Z,100.00
2023-08-08T22:11:41.752Z,100.00
2023-08-08T22:14:16.666Z,100.00
2023-08-08T22:16:44.046Z,100.00
2023-08-08T22:19:20.717Z,100.00
2023-08-08T22:21:57.709Z,100.00
2023-08-08T22:24:30.615Z,100.00
2023-08-08T22:27:07.703Z,100.00
2023-08-08T22:29:35.235Z,100.00
2023-08-08T22:32:09.767Z,100.00
2023-08-08T22:34:37.044Z,100.00
2023-08-08T22:37:10.971Z,100.00
2023-08-08T22:39:47.653Z,100.00
2023-08-08T22:42:21.755Z,100.00
2023-08-08T22:45:01.797Z,100.00
2023-08-08T22:47:35.702Z,100.00
2023-08-08T22:50:13.098Z,100.00
2023-08-08T22:52:43.217Z,100.00
2023-08-08T22:55:17.906Z,100.00
2023-08-08T22:57:48.174Z,100.00
2023-08-08T23:00:23.955Z,100.00
2023-08-08T23:02:51.521Z,100.00
2023-08-08T23:05:25.922Z,100.00
2023-08-08T23:07:53.255Z,100.00
2023-08-08T23:10:29.822Z,100.00
2023-08-08T23:12:57.294Z,100.00
2023-08-08T23:15:33.832Z,100.00
2023-08-08T23:18:04.134Z,100.00
2023-08-08T23:20:39.799Z,100.00
2023-08-08T23:23:07.447Z,100.00
2023-08-08T23:25:43.656Z,100.00
2023-08-08T23:28:11.348Z,100.00
2023-08-08T23:30:44.896Z,100.00
2023-08-08T23:33:18.883Z,100.00
2023-08-08T23:35:46.367Z,100.00
2023-08-08T23:38:20.717Z,100.00
2023-08-08T23:40:48.137Z,100.00
2023-08-08T23:43:31.726Z,100.00
2023-08-08T23:46:08.106Z,100.00
2023-08-08T23:48:46.698Z,100.00
2023-08-08T23:51:15.081Z,100.00
2023-08-08T23:53:49.733Z,100.00
2023-08-08T23:56:20.279Z,100.00
2023-08-08T23:58:54.745Z,100.00
